Bei Facebook empfehlenBei Twitter postenGoogle plusPinterest

Das Wetter im Erzgebirge am 28.06.2017

Wetter und Klima am 28.06.2017 Holzhau im Erzgebirge (630m ü.NN)
Letzte gemessene Temperatur und Uhrzeit der Messung23:45:00 Uhr13.70 °C
Temperatur (Maximum / Höchstwert) und Uhrzeit der Messung14:15:00 Uhr26.90 °C
Temperatur (Minimum / Tiefstwert) und Uhrzeit der Messung02:45:0010.90 °C
Errechneter Absolutwert der Temperaturschwankungen zwischen Tmin und Tmax des Tages16.00 K
Errechnete Tagesmitteltemperatur19.29479 °C
Gesamt - Niederschlag des Tages (in flüssiger Form)0.00 Liter / m²
Luftdruck (Maximum / Höchstwert) und Zeitpunkt der Messung00:00:00 Uhr1005.00 hPa
Luftdruck (Minimum / Tiefstwert) und Zeitpunkt der Messung23:45:00 Uhr996.20 hPa
Errechneter Absolutwert der Luftdruckschwankungen des Tages8.80 hPa
Höchste gemessene Windgeschwindigkeit und Uhrzeit der Messung13:45:00 Uhr41.40 km/h
Errechnete Windhäufigkeit in Relation zu den Messwerten des Tages19.79167 %
Niedrigste Windkühle (Windchill) und Zeitpunkt der Messung02:45:00 Uhr10.90 °C
Taupunkt (Maximum / Höchstwert) und Uhrzeit der Messung14:15:00 Uhr17.90 °C
Taupunkt (Minimum / Tiefstwert) und Uhrzeit der Messung01:00:009.60 °C
Anzahl der automatisch eingelesenen Messwerte 96

Detaillierte Wetter- und Klima- Messwerte für den 28.06.2017 in Holzhau im Erzgebirge (630m ü.NN)
ZeitTemperaturLuftdruckRel. LuftfeuchteWindWindrichtungWindchillTaupunktNiederschlag l/m²
23:45:0013.70 °C996.20 hPa88.00 %11.80 °C 
23:30:0013.90 °C996.30 hPa89.00 %12.10 °C 
23:15:0014.30 °C996.40 hPa89.00 %12.50 °C 
23:00:0014.30 °C996.40 hPa86.00 %12.00 °C 
22:45:0014.60 °C996.50 hPa86.00 %12.30 °C 
22:30:0015.30 °C996.60 hPa85.00 %12.80 °C 
22:15:0015.40 °C996.90 hPa85.00 %12.90 °C 
22:00:0015.90 °C996.90 hPa83.00 %13.00 °C 
21:45:0016.40 °C996.60 hPa81.00 %13.10 °C 
21:30:0017.10 °C996.50 hPa78.00 %13.20 °C 
21:15:0017.90 °C996.40 hPa76.00 %13.60 °C 
21:00:0018.80 °C996.60 hPa75.00 %14.30 °C 
20:45:0019.70 °C996.60 hPa73.00 %14.70 °C 
20:30:0020.30 °C996.90 hPa73.00 %15.30 °C 
20:15:0020.90 °C997.20 hPa71.00 %15.40 °C 
20:00:0021.60 °C997.00 hPa70.00 %15.90 °C 
19:45:0022.30 °C997.10 hPa68.00 %16.10 °C 
19:30:0023.30 °C997.20 hPa66.00 %40.32 km/hO24.50 °C16.60 °C 
19:15:0023.90 °C997.30 hPa65.00 %16.90 °C 
19:00:0024.10 °C997.70 hPa64.00 %16.90 °C 
18:45:0024.20 °C997.80 hPa65.00 %17.20 °C 
18:30:0024.40 °C997.70 hPa64.00 %17.10 °C 
18:15:0024.50 °C997.60 hPa66.00 %17.70 °C 
18:00:0023.60 °C997.60 hPa69.00 %17.60 °C 
17:45:0021.80 °C997.80 hPa76.00 %17.40 °C 
17:30:0019.30 °C998.20 hPa80.00 %15.80 °C 
17:15:0018.30 °C998.20 hPa79.00 %14.60 °C 
17:00:0018.90 °C998.60 hPa72.00 %13.70 °C 
16:45:0020.50 °C999.00 hPa66.00 %13.90 °C 
16:30:0022.40 °C998.90 hPa62.00 %14.80 °C 
16:15:0024.40 °C998.50 hPa61.00 %19.44 km/hW26.10 °C16.40 °C 
16:00:0025.40 °C998.50 hPa59.00 %25.92 km/hSSO27.10 °C16.80 °C 
15:45:0026.20 °C998.90 hPa56.00 %28.44 km/hOSO28.00 °C16.70 °C 
15:30:0026.30 °C998.60 hPa57.00 %2.52 km/hOSO26.30 °C17.10 °C 
15:15:0026.10 °C998.30 hPa58.00 %17.20 °C 
15:00:0026.30 °C998.40 hPa57.00 %10.44 km/hOSO26.30 °C17.10 °C 
14:45:0026.30 °C999.00 hPa57.00 %17.10 °C 
14:30:0026.40 °C998.90 hPa57.00 %17.20 °C 
14:15:0026.90 °C999.10 hPa58.00 %18.00 km/hSSW28.90 °C17.90 °C 
14:00:0026.40 °C999.20 hPa58.00 %17.50 °C 
13:45:0026.10 °C999.40 hPa59.00 %41.40 km/hSSW27.80 °C17.50 °C 
13:30:0026.40 °C999.50 hPa57.00 %19.44 km/hO28.30 °C17.20 °C 
13:15:0026.80 °C999.80 hPa56.00 %17.30 °C 
13:00:0026.50 °C999.60 hPa55.00 %16.70 °C 
12:45:0026.40 °C999.70 hPa55.00 %23.40 km/hSO28.30 °C16.60 °C 
12:30:0026.50 °C999.70 hPa56.00 %28.44 km/hSO28.40 °C17.00 °C 
12:15:0026.90 °C999.60 hPa57.00 %17.70 °C 
12:00:0026.40 °C999.80 hPa58.00 %7.92 km/hSO26.40 °C17.50 °C 
11:45:0026.60 °C1000.00 hPa57.00 %17.40 °C 
11:30:0026.30 °C1000.00 hPa59.00 %17.60 °C 
11:15:0026.20 °C1000.00 hPa58.00 %17.30 °C 
11:00:0025.60 °C1000.10 hPa59.00 %17.00 °C 
10:45:0025.30 °C1000.20 hPa61.00 %17.20 °C 
10:30:0025.20 °C1000.00 hPa62.00 %9.00 km/hSSO25.20 °C17.40 °C 
10:15:0024.70 °C1000.10 hPa62.00 %16.90 °C 
10:00:0024.40 °C1000.10 hPa62.00 %16.60 °C 
09:45:0023.80 °C1000.50 hPa63.00 %16.30 °C 
09:30:0023.80 °C1000.50 hPa63.00 %41.40 km/hSO25.10 °C16.30 °C 
09:15:0023.50 °C1000.40 hPa65.00 %19.44 km/hSW25.00 °C16.50 °C 
09:00:0023.10 °C1000.20 hPa67.00 %16.60 °C 
08:45:0022.90 °C1000.10 hPa68.00 %3.96 km/hSO22.90 °C16.70 °C 
08:30:0022.40 °C1000.60 hPa70.00 %16.70 °C 
08:15:0021.90 °C1000.30 hPa72.00 %16.60 °C 
08:00:0022.30 °C1000.60 hPa71.00 %6.48 km/hOSO22.30 °C16.80 °C 
07:45:0021.30 °C1000.70 hPa77.00 %17.10 °C 
07:30:0019.50 °C1000.70 hPa83.00 %16.50 °C 
07:15:0017.90 °C1000.90 hPa91.00 %16.40 °C 
07:00:0015.30 °C1000.90 hPa94.00 %14.30 °C 
06:45:0014.60 °C1001.20 hPa94.00 %13.60 °C 
06:30:0014.10 °C1001.40 hPa94.00 %13.10 °C 
06:15:0013.50 °C1001.40 hPa94.00 %12.60 °C 
06:00:0013.20 °C1001.60 hPa94.00 %12.30 °C 
05:45:0013.00 °C1001.60 hPa94.00 %12.10 °C 
05:30:0012.80 °C1001.60 hPa94.00 %11.90 °C 
05:15:0012.60 °C1001.90 hPa94.00 %11.70 °C 
05:00:0012.30 °C1001.90 hPa94.00 %11.40 °C 
04:45:0012.10 °C1002.00 hPa94.00 %11.20 °C 
04:30:0012.30 °C1002.30 hPa94.00 %11.40 °C 
04:15:0012.20 °C1002.40 hPa94.00 %11.30 °C 
04:00:0011.90 °C1002.50 hPa94.00 %11.00 °C 
03:45:0011.80 °C1002.60 hPa94.00 %10.90 °C 
03:30:0011.60 °C1002.80 hPa93.00 %10.50 °C 
03:15:0011.60 °C1002.90 hPa93.00 %10.50 °C 
03:00:0011.20 °C1003.20 hPa93.00 %10.10 °C 
02:45:0010.90 °C1003.40 hPa93.00 %9.80 °C 
02:30:0010.90 °C1003.50 hPa92.00 %9.70 °C 
02:15:0011.10 °C1003.50 hPa92.00 %9.90 °C 
02:00:0011.30 °C1004.00 hPa92.00 %2.52 km/hOSO11.30 °C10.00 °C 
01:45:0011.30 °C1004.00 hPa92.00 %18.00 km/hO11.20 °C10.00 °C 
01:30:0011.30 °C1004.30 hPa91.00 %9.90 °C 
01:15:0011.10 °C1004.30 hPa91.00 %9.70 °C 
01:00:0011.20 °C1004.20 hPa90.00 %9.60 °C 
00:45:0011.40 °C1004.40 hPa90.00 %9.80 °C 
00:30:0011.40 °C1004.70 hPa90.00 %9.80 °C 
00:15:0011.50 °C1004.70 hPa89.00 %9.80 °C 
00:00:0011.80 °C1005.00 hPa89.00 %10.00 °C 

Permanenter Link zu dieser Seite: Wetter im Erzgebirge am 28.06.2017
Performance-Info: Die Erstellung der Seite / Statistik(en) / Tabelle(n) erforderte 5 Datenbankserver-Abfrage(n) und dauerte 101 Millisekunden. (Dieser Messwert ist von der Gesamt-Auslastung des Servers abhängig.)
Erzgebirge - Wetter | Erzgebirge - Wetter (Mobilgeräte) | Komplette Klimadatenbank